sensor_id;sensor_type;location;lat;lon;timestamp;P1;durP1;ratioP1;P2;durP2;ratioP2
39896;SDS011;25567;48.276;14.242;2023-08-17T00:00:07;13.90;;;11.27;;
39896;SDS011;25567;48.276;14.242;2023-08-17T00:02:40;21.50;;;12.98;;
39896;SDS011;25567;48.276;14.242;2023-08-17T00:05:07;20.83;;;12.13;;
39896;SDS011;25567;48.276;14.242;2023-08-17T00:07:33;18.33;;;11.32;;
39896;SDS011;25567;48.276;14.242;2023-08-17T00:10:00;22.48;;;11.43;;
39896;SDS011;25567;48.276;14.242;2023-08-17T00:12:26;21.55;;;12.27;;
39896;SDS011;25567;48.276;14.242;2023-08-17T00:14:53;17.20;;;11.38;;
39896;SDS011;25567;48.276;14.242;2023-08-17T00:17:19;17.23;;;11.15;;
39896;SDS011;25567;48.276;14.242;2023-08-17T00:19:46;17.77;;;11.48;;
39896;SDS011;25567;48.276;14.242;2023-08-17T00:22:13;18.92;;;11.98;;
39896;SDS011;25567;48.276;14.242;2023-08-17T00:24:39;17.80;;;10.88;;
39896;SDS011;25567;48.276;14.242;2023-08-17T00:27:08;21.85;;;11.40;;
39896;SDS011;25567;48.276;14.242;2023-08-17T00:29:34;22.40;;;12.10;;
39896;SDS011;25567;48.276;14.242;2023-08-17T00:32:02;18.67;;;12.45;;
39896;SDS011;25567;48.276;14.242;2023-08-17T00:34:28;22.67;;;12.68;;
39896;SDS011;25567;48.276;14.242;2023-08-17T00:36:55;18.98;;;11.65;;
39896;SDS011;25567;48.276;14.242;2023-08-17T00:39:21;25.17;;;13.07;;
39896;SDS011;25567;48.276;14.242;2023-08-17T00:41:48;24.48;;;12.15;;
39896;SDS011;25567;48.276;14.242;2023-08-17T00:44:14;18.48;;;11.93;;
39896;SDS011;25567;48.276;14.242;2023-08-17T00:46:41;23.65;;;12.48;;
39896;SDS011;25567;48.276;14.242;2023-08-17T00:49:08;20.85;;;13.13;;
39896;SDS011;25567;48.276;14.242;2023-08-17T00:51:34;21.65;;;12.35;;
39896;SDS011;25567;48.276;14.242;2023-08-17T00:54:01;18.02;;;12.52;;
39896;SDS011;25567;48.276;14.242;2023-08-17T00:56:28;20.05;;;12.60;;
39896;SDS011;25567;48.276;14.242;2023-08-17T00:58:55;19.50;;;11.48;;
39896;SDS011;25567;48.276;14.242;2023-08-17T01:01:22;22.67;;;13.25;;
39896;SDS011;25567;48.276;14.242;2023-08-17T01:03:48;19.70;;;13.02;;
39896;SDS011;25567;48.276;14.242;2023-08-17T01:06:15;21.40;;;12.10;;
39896;SDS011;25567;48.276;14.242;2023-08-17T01:08:42;25.52;;;12.13;;
39896;SDS011;25567;48.276;14.242;2023-08-17T01:14:16;18.63;;;11.48;;
39896;SDS011;25567;48.276;14.242;2023-08-17T01:17:24;22.85;;;11.80;;
39896;SDS011;25567;48.276;14.242;2023-08-17T01:19:25;25.33;;;12.52;;
39896;SDS011;25567;48.276;14.242;2023-08-17T01:21:54;17.60;;;10.88;;
39896;SDS011;25567;48.276;14.242;2023-08-17T01:24:21;18.13;;;11.00;;
39896;SDS011;25567;48.276;14.242;2023-08-17T01:26:47;22.58;;;11.60;;
39896;SDS011;25567;48.276;14.242;2023-08-17T01:29:14;18.02;;;11.70;;
39896;SDS011;25567;48.276;14.242;2023-08-17T01:31:47;21.90;;;11.48;;
39896;SDS011;25567;48.276;14.242;2023-08-17T01:34:18;18.00;;;11.50;;
39896;SDS011;25567;48.276;14.242;2023-08-17T01:36:52;18.73;;;11.18;;
39896;SDS011;25567;48.276;14.242;2023-08-17T01:39:20;21.58;;;12.10;;
39896;SDS011;25567;48.276;14.242;2023-08-17T01:41:49;22.85;;;11.63;;
39896;SDS011;25567;48.276;14.242;2023-08-17T01:44:17;19.83;;;11.93;;
39896;SDS011;25567;48.276;14.242;2023-08-17T01:46:44;21.23;;;12.05;;
39896;SDS011;25567;48.276;14.242;2023-08-17T01:49:10;25.10;;;13.20;;
39896;SDS011;25567;48.276;14.242;2023-08-17T01:51:37;22.30;;;13.38;;
39896;SDS011;25567;48.276;14.242;2023-08-17T01:54:03;18.40;;;12.35;;
39896;SDS011;25567;48.276;14.242;2023-08-17T01:56:30;20.80;;;12.13;;
39896;SDS011;25567;48.276;14.242;2023-08-17T01:58:56;20.40;;;11.50;;
39896;SDS011;25567;48.276;14.242;2023-08-17T02:01:23;22.45;;;11.95;;
39896;SDS011;25567;48.276;14.242;2023-08-17T02:03:50;24.55;;;12.90;;
39896;SDS011;25567;48.276;14.242;2023-08-17T02:06:16;26.33;;;12.20;;
39896;SDS011;25567;48.276;14.242;2023-08-17T02:08:43;20.17;;;12.63;;
39896;SDS011;25567;48.276;14.242;2023-08-17T02:11:10;19.38;;;11.93;;
39896;SDS011;25567;48.276;14.242;2023-08-17T02:13:36;21.38;;;12.20;;
39896;SDS011;25567;48.276;14.242;2023-08-17T02:16:04;21.75;;;11.82;;
39896;SDS011;25567;48.276;14.242;2023-08-17T02:18:30;21.00;;;11.50;;
39896;SDS011;25567;48.276;14.242;2023-08-17T02:20:59;28.42;;;12.10;;
39896;SDS011;25567;48.276;14.242;2023-08-17T02:23:25;24.42;;;12.20;;
39896;SDS011;25567;48.276;14.242;2023-08-17T02:25:52;23.58;;;12.63;;
39896;SDS011;25567;48.276;14.242;2023-08-17T02:28:18;25.88;;;12.30;;
39896;SDS011;25567;48.276;14.242;2023-08-17T02:30:45;21.67;;;13.25;;
39896;SDS011;25567;48.276;14.242;2023-08-17T02:33:13;20.02;;;11.82;;
39896;SDS011;25567;48.276;14.242;2023-08-17T02:35:39;25.65;;;12.93;;
39896;SDS011;25567;48.276;14.242;2023-08-17T02:38:06;18.85;;;12.18;;
39896;SDS011;25567;48.276;14.242;2023-08-17T02:40:32;18.88;;;12.07;;
39896;SDS011;25567;48.276;14.242;2023-08-17T02:42:59;20.85;;;11.65;;
39896;SDS011;25567;48.276;14.242;2023-08-17T02:45:25;20.30;;;11.57;;
39896;SDS011;25567;48.276;14.242;2023-08-17T02:47:52;21.63;;;12.57;;
39896;SDS011;25567;48.276;14.242;2023-08-17T02:50:18;21.02;;;13.25;;
39896;SDS011;25567;48.276;14.242;2023-08-17T02:52:45;17.50;;;11.57;;
39896;SDS011;25567;48.276;14.242;2023-08-17T02:55:11;25.38;;;12.40;;
39896;SDS011;25567;48.276;14.242;2023-08-17T02:57:38;27.23;;;12.45;;
39896;SDS011;25567;48.276;14.242;2023-08-17T03:00:04;19.10;;;12.40;;
39896;SDS011;25567;48.276;14.242;2023-08-17T03:02:31;20.15;;;12.45;;
39896;SDS011;25567;48.276;14.242;2023-08-17T03:04:58;21.33;;;13.27;;
39896;SDS011;25567;48.276;14.242;2023-08-17T03:07:24;20.88;;;13.02;;
39896;SDS011;25567;48.276;14.242;2023-08-17T03:09:51;20.55;;;12.90;;
39896;SDS011;25567;48.276;14.242;2023-08-17T03:12:17;19.67;;;13.13;;
39896;SDS011;25567;48.276;14.242;2023-08-17T03:14:44;22.90;;;13.57;;
39896;SDS011;25567;48.276;14.242;2023-08-17T03:17:10;19.65;;;13.73;;
39896;SDS011;25567;48.276;14.242;2023-08-17T03:19:37;18.77;;;12.38;;
39896;SDS011;25567;48.276;14.242;2023-08-17T03:22:04;21.02;;;13.40;;
39896;SDS011;25567;48.276;14.242;2023-08-17T03:24:30;23.08;;;12.88;;
39896;SDS011;25567;48.276;14.242;2023-08-17T03:26:57;21.05;;;13.40;;
39896;SDS011;25567;48.276;14.242;2023-08-17T03:29:23;20.73;;;13.32;;
39896;SDS011;25567;48.276;14.242;2023-08-17T03:31:50;22.63;;;12.93;;
39896;SDS011;25567;48.276;14.242;2023-08-17T03:34:19;23.88;;;13.93;;
39896;SDS011;25567;48.276;14.242;2023-08-17T03:36:45;19.02;;;12.52;;
39896;SDS011;25567;48.276;14.242;2023-08-17T03:39:12;25.52;;;12.73;;
39896;SDS011;25567;48.276;14.242;2023-08-17T03:41:38;19.35;;;12.48;;
39896;SDS011;25567;48.276;14.242;2023-08-17T03:44:05;19.73;;;12.90;;
39896;SDS011;25567;48.276;14.242;2023-08-17T03:46:32;22.40;;;12.95;;
39896;SDS011;25567;48.276;14.242;2023-08-17T03:49:00;26.42;;;12.55;;
39896;SDS011;25567;48.276;14.242;2023-08-17T03:51:26;20.25;;;12.30;;
39896;SDS011;25567;48.276;14.242;2023-08-17T03:53:53;23.45;;;12.77;;
39896;SDS011;25567;48.276;14.242;2023-08-17T03:56:19;19.23;;;12.70;;
39896;SDS011;25567;48.276;14.242;2023-08-17T03:58:46;20.45;;;12.95;;
39896;SDS011;25567;48.276;14.242;2023-08-17T04:01:12;23.95;;;13.05;;
39896;SDS011;25567;48.276;14.242;2023-08-17T04:03:40;23.90;;;13.68;;
39896;SDS011;25567;48.276;14.242;2023-08-17T04:06:07;18.95;;;13.45;;
39896;SDS011;25567;48.276;14.242;2023-08-17T04:08:37;21.92;;;13.50;;
39896;SDS011;25567;48.276;14.242;2023-08-17T04:11:04;22.23;;;13.40;;
39896;SDS011;25567;48.276;14.242;2023-08-17T04:13:31;20.20;;;12.85;;
39896;SDS011;25567;48.276;14.242;2023-08-17T04:15:58;18.33;;;12.00;;
39896;SDS011;25567;48.276;14.242;2023-08-17T04:18:24;20.63;;;12.88;;
39896;SDS011;25567;48.276;14.242;2023-08-17T04:20:51;21.52;;;13.95;;
39896;SDS011;25567;48.276;14.242;2023-08-17T04:23:20;27.35;;;14.00;;
39896;SDS011;25567;48.276;14.242;2023-08-17T04:25:47;23.48;;;13.57;;
39896;SDS011;25567;48.276;14.242;2023-08-17T04:28:14;22.02;;;13.88;;
39896;SDS011;25567;48.276;14.242;2023-08-17T04:30:42;21.15;;;12.93;;
39896;SDS011;25567;48.276;14.242;2023-08-17T04:33:09;21.98;;;12.60;;
39896;SDS011;25567;48.276;14.242;2023-08-17T04:35:35;22.95;;;13.50;;
39896;SDS011;25567;48.276;14.242;2023-08-17T04:38:02;22.65;;;13.98;;
39896;SDS011;25567;48.276;14.242;2023-08-17T04:40:29;23.17;;;14.13;;
39896;SDS011;25567;48.276;14.242;2023-08-17T04:42:55;20.52;;;12.18;;
39896;SDS011;25567;48.276;14.242;2023-08-17T04:45:22;20.77;;;12.93;;
39896;SDS011;25567;48.276;14.242;2023-08-17T04:47:49;26.35;;;14.15;;
39896;SDS011;25567;48.276;14.242;2023-08-17T04:50:15;21.60;;;14.27;;
39896;SDS011;25567;48.276;14.242;2023-08-17T04:52:45;25.95;;;15.02;;
39896;SDS011;25567;48.276;14.242;2023-08-17T04:55:15;20.05;;;13.57;;
39896;SDS011;25567;48.276;14.242;2023-08-17T04:57:41;26.55;;;15.10;;
39896;SDS011;25567;48.276;14.242;2023-08-17T05:00:08;23.88;;;13.25;;
39896;SDS011;25567;48.276;14.242;2023-08-17T05:02:36;22.77;;;15.13;;
39896;SDS011;25567;48.276;14.242;2023-08-17T05:05:05;20.50;;;13.85;;
39896;SDS011;25567;48.276;14.242;2023-08-17T05:07:33;24.20;;;14.05;;
39896;SDS011;25567;48.276;14.242;2023-08-17T05:09:59;25.42;;;14.15;;
39896;SDS011;25567;48.276;14.242;2023-08-17T05:12:26;24.67;;;14.85;;
39896;SDS011;25567;48.276;14.242;2023-08-17T05:14:53;21.35;;;13.75;;
39896;SDS011;25567;48.276;14.242;2023-08-17T05:17:19;23.92;;;13.43;;
39896;SDS011;25567;48.276;14.242;2023-08-17T05:19:46;25.17;;;14.68;;
39896;SDS011;25567;48.276;14.242;2023-08-17T05:22:13;22.35;;;14.45;;
39896;SDS011;25567;48.276;14.242;2023-08-17T05:24:39;21.63;;;13.40;;
39896;SDS011;25567;48.276;14.242;2023-08-17T05:27:06;19.98;;;14.20;;
39896;SDS011;25567;48.276;14.242;2023-08-17T05:29:32;25.65;;;14.10;;
39896;SDS011;25567;48.276;14.242;2023-08-17T05:31:59;23.95;;;13.80;;
39896;SDS011;25567;48.276;14.242;2023-08-17T05:34:25;21.60;;;13.48;;
39896;SDS011;25567;48.276;14.242;2023-08-17T05:36:52;20.95;;;12.82;;
39896;SDS011;25567;48.276;14.242;2023-08-17T05:39:18;21.08;;;13.88;;
39896;SDS011;25567;48.276;14.242;2023-08-17T05:41:45;26.88;;;14.40;;
39896;SDS011;25567;48.276;14.242;2023-08-17T05:44:12;24.83;;;13.05;;
39896;SDS011;25567;48.276;14.242;2023-08-17T05:46:40;32.40;;;15.05;;
39896;SDS011;25567;48.276;14.242;2023-08-17T05:49:07;23.42;;;14.43;;
39896;SDS011;25567;48.276;14.242;2023-08-17T05:51:33;23.73;;;14.60;;
39896;SDS011;25567;48.276;14.242;2023-08-17T05:54:00;25.05;;;14.40;;
39896;SDS011;25567;48.276;14.242;2023-08-17T05:56:26;25.13;;;14.63;;
39896;SDS011;25567;48.276;14.242;2023-08-17T05:58:54;20.73;;;13.70;;
39896;SDS011;25567;48.276;14.242;2023-08-17T06:01:20;26.92;;;13.88;;
39896;SDS011;25567;48.276;14.242;2023-08-17T06:03:47;26.75;;;14.35;;
39896;SDS011;25567;48.276;14.242;2023-08-17T06:06:14;21.98;;;14.55;;
39896;SDS011;25567;48.276;14.242;2023-08-17T06:08:40;32.90;;;15.07;;
39896;SDS011;25567;48.276;14.242;2023-08-17T06:11:07;23.45;;;14.27;;
39896;SDS011;25567;48.276;14.242;2023-08-17T06:13:33;27.83;;;14.15;;
39896;SDS011;25567;48.276;14.242;2023-08-17T06:16:02;22.25;;;13.55;;
39896;SDS011;25567;48.276;14.242;2023-08-17T06:18:29;20.70;;;12.38;;
39896;SDS011;25567;48.276;14.242;2023-08-17T06:20:55;19.17;;;11.90;;
39896;SDS011;25567;48.276;14.242;2023-08-17T06:23:23;19.80;;;11.82;;
39896;SDS011;25567;48.276;14.242;2023-08-17T06:25:50;19.38;;;12.35;;
39896;SDS011;25567;48.276;14.242;2023-08-17T06:28:16;25.80;;;11.52;;
39896;SDS011;25567;48.276;14.242;2023-08-17T06:30:42;21.50;;;12.05;;
39896;SDS011;25567;48.276;14.242;2023-08-17T06:33:09;19.20;;;13.20;;
39896;SDS011;25567;48.276;14.242;2023-08-17T06:35:36;16.05;;;11.68;;
39896;SDS011;25567;48.276;14.242;2023-08-17T06:38:02;20.50;;;12.98;;
39896;SDS011;25567;48.276;14.242;2023-08-17T06:40:29;18.13;;;12.40;;
39896;SDS011;25567;48.276;14.242;2023-08-17T06:42:55;17.52;;;12.20;;
39896;SDS011;25567;48.276;14.242;2023-08-17T06:45:22;19.65;;;11.70;;
39896;SDS011;25567;48.276;14.242;2023-08-17T06:47:49;20.88;;;11.48;;
39896;SDS011;25567;48.276;14.242;2023-08-17T06:50:16;21.05;;;12.35;;
39896;SDS011;25567;48.276;14.242;2023-08-17T06:52:42;20.30;;;11.85;;
39896;SDS011;25567;48.276;14.242;2023-08-17T06:55:08;18.73;;;11.30;;
39896;SDS011;25567;48.276;14.242;2023-08-17T06:57:36;19.77;;;11.35;;
39896;SDS011;25567;48.276;14.242;2023-08-17T07:00:03;20.42;;;11.48;;
39896;SDS011;25567;48.276;14.242;2023-08-17T07:02:32;16.17;;;10.40;;
39896;SDS011;25567;48.276;14.242;2023-08-17T07:05:17;19.10;;;10.68;;
39896;SDS011;25567;48.276;14.242;2023-08-17T07:07:47;16.38;;;10.63;;
39896;SDS011;25567;48.276;14.242;2023-08-17T07:10:13;17.58;;;10.55;;
39896;SDS011;25567;48.276;14.242;2023-08-17T07:12:40;18.52;;;10.63;;
39896;SDS011;25567;48.276;14.242;2023-08-17T07:15:06;17.70;;;11.07;;
39896;SDS011;25567;48.276;14.242;2023-08-17T07:17:33;22.33;;;11.30;;
39896;SDS011;25567;48.276;14.242;2023-08-17T07:20:06;17.17;;;11.00;;
39896;SDS011;25567;48.276;14.242;2023-08-17T07:22:42;21.20;;;11.10;;
39896;SDS011;25567;48.276;14.242;2023-08-17T07:25:08;19.67;;;11.05;;
39896;SDS011;25567;48.276;14.242;2023-08-17T07:27:35;21.38;;;11.30;;
39896;SDS011;25567;48.276;14.242;2023-08-17T07:30:02;21.80;;;11.23;;
39896;SDS011;25567;48.276;14.242;2023-08-17T07:32:28;19.35;;;10.60;;
39896;SDS011;25567;48.276;14.242;2023-08-17T07:34:55;17.40;;;10.70;;
39896;SDS011;25567;48.276;14.242;2023-08-17T07:37:21;16.63;;;10.30;;
39896;SDS011;25567;48.276;14.242;2023-08-17T07:39:48;20.90;;;9.75;;
39896;SDS011;25567;48.276;14.242;2023-08-17T07:42:15;17.70;;;9.98;;
39896;SDS011;25567;48.276;14.242;2023-08-17T07:44:41;17.77;;;10.43;;
39896;SDS011;25567;48.276;14.242;2023-08-17T07:47:08;18.80;;;9.70;;
39896;SDS011;25567;48.276;14.242;2023-08-17T07:49:35;21.58;;;10.82;;
39896;SDS011;25567;48.276;14.242;2023-08-17T07:52:01;19.23;;;10.40;;
39896;SDS011;25567;48.276;14.242;2023-08-17T07:54:28;16.98;;;10.77;;
39896;SDS011;25567;48.276;14.242;2023-08-17T07:56:54;14.00;;;9.70;;
39896;SDS011;25567;48.276;14.242;2023-08-17T07:59:21;19.17;;;10.88;;
39896;SDS011;25567;48.276;14.242;2023-08-17T08:01:48;25.45;;;11.90;;
39896;SDS011;25567;48.276;14.242;2023-08-17T08:04:14;17.00;;;10.57;;
39896;SDS011;25567;48.276;14.242;2023-08-17T08:06:41;19.15;;;9.57;;
39896;SDS011;25567;48.276;14.242;2023-08-17T08:09:08;20.50;;;10.32;;
39896;SDS011;25567;48.276;14.242;2023-08-17T08:11:34;24.42;;;10.40;;
39896;SDS011;25567;48.276;14.242;2023-08-17T08:14:01;20.55;;;11.32;;
39896;SDS011;25567;48.276;14.242;2023-08-17T08:16:27;18.27;;;11.43;;
39896;SDS011;25567;48.276;14.242;2023-08-17T08:18:57;18.17;;;10.25;;
39896;SDS011;25567;48.276;14.242;2023-08-17T08:21:24;20.13;;;10.45;;
39896;SDS011;25567;48.276;14.242;2023-08-17T08:23:50;17.45;;;9.93;;
39896;SDS011;25567;48.276;14.242;2023-08-17T08:26:17;21.35;;;10.82;;
39896;SDS011;25567;48.276;14.242;2023-08-17T08:28:43;23.35;;;10.52;;
39896;SDS011;25567;48.276;14.242;2023-08-17T08:31:10;24.40;;;9.93;;
39896;SDS011;25567;48.276;14.242;2023-08-17T08:33:37;18.10;;;9.70;;
39896;SDS011;25567;48.276;14.242;2023-08-17T08:36:03;23.83;;;10.10;;
39896;SDS011;25567;48.276;14.242;2023-08-17T08:38:32;19.80;;;10.65;;
39896;SDS011;25567;48.276;14.242;2023-08-17T08:40:58;23.10;;;10.88;;
39896;SDS011;25567;48.276;14.242;2023-08-17T08:43:25;23.23;;;10.65;;
39896;SDS011;25567;48.276;14.242;2023-08-17T08:45:52;15.23;;;9.68;;
39896;SDS011;25567;48.276;14.242;2023-08-17T08:48:20;18.83;;;10.70;;
39896;SDS011;25567;48.276;14.242;2023-08-17T08:50:48;24.58;;;11.05;;
39896;SDS011;25567;48.276;14.242;2023-08-17T08:53:17;24.48;;;10.57;;
39896;SDS011;25567;48.276;14.242;2023-08-17T08:56:02;23.95;;;10.55;;
39896;SDS011;25567;48.276;14.242;2023-08-17T08:58:29;12.67;;;9.77;;
39896;SDS011;25567;48.276;14.242;2023-08-17T09:00:57;20.58;;;10.00;;
39896;SDS011;25567;48.276;14.242;2023-08-17T09:03:25;14.48;;;10.30;;
39896;SDS011;25567;48.276;14.242;2023-08-17T09:05:51;14.00;;;9.90;;
39896;SDS011;25567;48.276;14.242;2023-08-17T09:08:22;15.25;;;9.48;;
39896;SDS011;25567;48.276;14.242;2023-08-17T09:10:51;19.40;;;9.85;;
39896;SDS011;25567;48.276;14.242;2023-08-17T09:13:18;17.20;;;10.07;;
39896;SDS011;25567;48.276;14.242;2023-08-17T09:15:45;15.75;;;8.85;;
39896;SDS011;25567;48.276;14.242;2023-08-17T09:18:11;14.80;;;9.73;;
39896;SDS011;25567;48.276;14.242;2023-08-17T09:20:46;15.68;;;9.35;;
39896;SDS011;25567;48.276;14.242;2023-08-17T09:23:15;11.97;;;8.17;;
39896;SDS011;25567;48.276;14.242;2023-08-17T09:25:44;12.52;;;8.52;;
39896;SDS011;25567;48.276;14.242;2023-08-17T09:28:11;14.30;;;8.95;;
39896;SDS011;25567;48.276;14.242;2023-08-17T09:30:49;16.73;;;9.40;;
39896;SDS011;25567;48.276;14.242;2023-08-17T09:33:15;13.93;;;8.85;;
39896;SDS011;25567;48.276;14.242;2023-08-17T09:35:42;16.17;;;8.90;;
39896;SDS011;25567;48.276;14.242;2023-08-17T09:38:08;13.52;;;9.30;;
39896;SDS011;25567;48.276;14.242;2023-08-17T09:40:35;15.90;;;9.35;;
39896;SDS011;25567;48.276;14.242;2023-08-17T09:43:02;14.20;;;9.43;;
39896;SDS011;25567;48.276;14.242;2023-08-17T09:45:29;18.98;;;9.23;;
39896;SDS011;25567;48.276;14.242;2023-08-17T09:48:00;16.40;;;9.07;;
39896;SDS011;25567;48.276;14.242;2023-08-17T09:50:29;20.17;;;9.30;;
39896;SDS011;25567;48.276;14.242;2023-08-17T09:52:55;18.35;;;9.43;;
39896;SDS011;25567;48.276;14.242;2023-08-17T09:55:22;15.32;;;9.68;;
39896;SDS011;25567;48.276;14.242;2023-08-17T09:57:49;13.65;;;9.77;;
39896;SDS011;25567;48.276;14.242;2023-08-17T10:00:17;12.40;;;9.32;;
39896;SDS011;25567;48.276;14.242;2023-08-17T10:02:44;13.75;;;9.13;;
39896;SDS011;25567;48.276;14.242;2023-08-17T10:05:11;14.43;;;9.82;;
39896;SDS011;25567;48.276;14.242;2023-08-17T10:07:40;13.13;;;8.95;;
39896;SDS011;25567;48.276;14.242;2023-08-17T10:10:07;17.33;;;9.52;;
39896;SDS011;25567;48.276;14.242;2023-08-17T10:12:37;18.85;;;10.07;;
39896;SDS011;25567;48.276;14.242;2023-08-17T10:15:06;16.40;;;9.48;;
39896;SDS011;25567;48.276;14.242;2023-08-17T10:17:35;18.30;;;9.10;;
39896;SDS011;25567;48.276;14.242;2023-08-17T10:20:04;12.15;;;8.50;;
39896;SDS011;25567;48.276;14.242;2023-08-17T10:22:33;15.63;;;8.85;;
39896;SDS011;25567;48.276;14.242;2023-08-17T10:25:02;15.65;;;9.57;;
39896;SDS011;25567;48.276;14.242;2023-08-17T10:27:29;13.07;;;9.25;;
39896;SDS011;25567;48.276;14.242;2023-08-17T10:29:56;17.88;;;10.02;;
39896;SDS011;25567;48.276;14.242;2023-08-17T10:32:24;16.60;;;9.18;;
39896;SDS011;25567;48.276;14.242;2023-08-17T10:34:51;14.77;;;8.35;;
39896;SDS011;25567;48.276;14.242;2023-08-17T10:37:19;20.05;;;8.60;;
39896;SDS011;25567;48.276;14.242;2023-08-17T10:39:47;18.58;;;8.80;;
39896;SDS011;25567;48.276;14.242;2023-08-17T10:42:13;21.67;;;9.65;;
39896;SDS011;25567;48.276;14.242;2023-08-17T10:47:22;16.48;;;8.77;;
39896;SDS011;25567;48.276;14.242;2023-08-17T10:49:49;19.55;;;8.73;;
39896;SDS011;25567;48.276;14.242;2023-08-17T10:52:24;14.57;;;8.77;;
39896;SDS011;25567;48.276;14.242;2023-08-17T10:54:52;14.38;;;8.98;;
39896;SDS011;25567;48.276;14.242;2023-08-17T10:57:29;12.73;;;9.07;;
39896;SDS011;25567;48.276;14.242;2023-08-17T11:03:00;13.77;;;8.13;;
39896;SDS011;25567;48.276;14.242;2023-08-17T11:05:34;13.38;;;9.15;;
39896;SDS011;25567;48.276;14.242;2023-08-17T11:08:00;15.50;;;8.35;;
39896;SDS011;25567;48.276;14.242;2023-08-17T11:10:27;14.20;;;7.88;;
39896;SDS011;25567;48.276;14.242;2023-08-17T11:12:57;13.93;;;8.35;;
